Time,TemperatureF,DewpointF,PressureIn,WindDirection,WindDirectionDegrees,WindSpeedMPH,WindSpeedGustMPH,Humidity,HourlyPrecipIn,Conditions,Clouds,dailyrainin,SoftwareType,DateUTC
2014-01-02 00:00:00,31.1,28.2,30.35,South,180,0.0,0.0,89,0.00,,,0.00,VWS V14.01,2014-01-02 05:00:00,
2014-01-02 00:30:00,31.1,28.5,30.33,South,180,0.0,0.0,90,0.00,,,0.00,VWS V14.01,2014-01-02 05:30:00,
2014-01-02 01:00:00,31.2,28.9,30.32,South,180,0.0,0.0,91,0.00,,,0.00,VWS V14.01,2014-01-02 06:00:00,
2014-01-02 01:30:00,31.3,29.2,30.32,South,180,0.0,0.0,92,0.00,,,0.00,VWS V14.01,2014-01-02 06:30:00,
2014-01-02 02:00:00,31.5,29.5,30.32,South,180,0.0,0.0,92,0.00,,,0.00,VWS V14.01,2014-01-02 07:00:00,
2014-01-02 02:30:00,31.9,30.1,30.29,South,180,0.0,0.0,93,0.00,,,0.00,VWS V14.01,2014-01-02 07:30:00,
2014-01-02 03:00:00,32.1,30.3,30.28,South,180,0.0,0.0,93,0.00,,,0.00,VWS V14.01,2014-01-02 08:00:00,
2014-01-02 03:30:00,32.5,30.7,30.27,South,180,0.0,0.0,93,0.00,,,0.00,VWS V14.01,2014-01-02 08:30:00,
2014-01-02 04:00:00,32.9,31.1,30.26,South,180,0.0,0.0,93,0.00,,,0.00,VWS V14.01,2014-01-02 09:00:00,
2014-01-02 04:30:00,33.3,31.5,30.23,South,180,0.0,0.0,93,0.00,,,0.00,VWS V14.01,2014-01-02 09:30:00,
2014-01-02 05:00:00,33.5,31.7,30.21,South,180,0.0,0.0,93,0.00,,,0.00,VWS V14.01,2014-01-02 10:00:00,
2014-01-02 05:30:00,33.3,31.5,30.22,South,180,0.0,0.0,93,0.00,,,0.00,VWS V14.01,2014-01-02 10:30:00,
2014-01-02 06:00:00,33.3,31.5,30.19,South,180,0.0,0.0,93,0.00,,,0.00,VWS V14.01,2014-01-02 11:00:00,
2014-01-02 06:30:00,33.0,31.2,30.18,South,180,0.0,0.0,93,0.00,,,0.00,VWS V14.01,2014-01-02 11:30:00,
2014-01-02 07:00:00,32.7,30.9,30.17,South,180,0.0,0.0,93,0.00,,,0.00,VWS V14.01,2014-01-02 12:00:00,
2014-01-02 07:30:00,32.6,30.8,30.17,South,180,0.0,0.0,93,0.00,,,0.00,VWS V14.01,2014-01-02 12:30:00,
2014-01-02 08:00:00,32.6,30.8,30.16,South,180,0.0,0.0,93,0.00,,,0.00,VWS V14.01,2014-01-02 13:00:00,
2014-01-02 08:30:00,33.0,31.5,30.14,South,180,0.0,0.0,94,0.00,,,0.00,VWS V14.01,2014-01-02 13:30:00,
2014-01-02 09:00:00,34.5,33.2,30.15,South,180,0.0,0.0,95,0.00,,,0.00,VWS V14.01,2014-01-02 14:00:00,
2014-01-02 09:30:00,37.1,35.8,30.13,South,180,0.0,1.0,95,0.00,,,0.00,VWS V14.01,2014-01-02 14:30:00,
2014-01-02 10:00:00,39.1,37.2,30.11,South,180,0.0,2.0,93,0.00,,,0.00,VWS V14.01,2014-01-02 15:00:00,
2014-01-02 10:30:00,41.1,37.8,30.10,South,180,0.0,2.0,88,0.00,,,0.00,VWS V14.01,2014-01-02 15:30:00,
2014-01-02 11:00:00,43.8,38.0,30.07,South,180,0.0,4.0,80,0.00,,,0.00,VWS V14.01,2014-01-02 16:00:00,
2014-01-02 11:30:00,45.3,38.9,30.03,SW,225,0.0,3.0,78,0.00,,,0.00,VWS V14.01,2014-01-02 16:30:00,
2014-01-02 12:00:00,46.2,39.4,30.02,SW,225,0.0,4.0,77,0.00,,,0.00,VWS V14.01,2014-01-02 17:00:00,
2014-01-02 12:30:00,46.3,39.5,29.97,SW,225,0.0,3.0,77,0.00,,,0.00,VWS V14.01,2014-01-02 17:30:00,
2014-01-02 13:00:00,46.4,39.9,29.96,SW,225,0.0,3.0,78,0.00,,,0.00,VWS V14.01,2014-01-02 18:00:00,
2014-01-02 13:30:00,46.5,40.3,29.94,SW,225,0.0,6.0,79,0.00,,,0.00,VWS V14.01,2014-01-02 18:30:00,
2014-01-02 14:00:00,46.0,41.4,29.93,NNW,338,0.0,6.0,84,0.01,,,0.01,VWS V14.01,2014-01-02 19:00:00,
2014-01-02 14:30:00,44.6,41.3,29.91,NW,315,0.0,3.0,88,0.02,,,0.02,VWS V14.01,2014-01-02 19:30:00,
2014-01-02 15:00:00,43.8,41.3,29.88,SW,225,0.0,5.0,91,0.06,,,0.06,VWS V14.01,2014-01-02 20:00:00,
2014-01-02 15:30:00,43.5,41.6,29.88,SW,225,0.0,3.0,93,0.08,,,0.09,VWS V14.01,2014-01-02 20:30:00,
2014-01-02 16:00:00,43.5,41.6,29.86,SW,225,0.0,0.0,93,0.08,,,0.10,VWS V14.01,2014-01-02 21:00:00,
2014-01-02 16:30:00,43.5,41.9,29.85,SW,225,0.0,0.0,94,0.08,,,0.14,VWS V14.01,2014-01-02 21:30:00,
2014-01-02 17:00:00,43.5,41.9,29.85,SW,225,0.0,0.0,94,0.12,,,0.21,VWS V14.01,2014-01-02 22:00:00,
2014-01-02 17:30:00,43.4,41.8,29.84,SW,225,0.0,0.0,94,0.16,,,0.26,VWS V14.01,2014-01-02 22:30:00,
2014-01-02 18:00:00,43.3,42.0,29.85,NW,315,0.0,3.0,95,0.16,,,0.30,VWS V14.01,2014-01-02 23:00:00,
2014-01-02 18:30:00,43.3,42.0,29.83,NW,315,0.0,3.0,95,0.12,,,0.33,VWS V14.01,2014-01-02 23:30:00,
2014-01-02 19:00:00,43.2,41.9,29.84,NW,315,0.0,1.0,95,0.08,,,0.34,VWS V14.01,2014-01-03 00:00:00,
2014-01-02 19:30:00,42.9,41.6,29.83,NW,315,0.0,3.0,95,0.09,,,0.39,VWS V14.01,2014-01-03 00:30:00,
2014-01-02 20:00:00,42.5,41.2,29.81,NW,315,0.0,0.0,95,0.07,,,0.40,VWS V14.01,2014-01-03 01:00:00,
2014-01-02 20:30:00,42.0,40.7,29.82,NW,315,0.0,0.0,95,0.06,,,0.40,VWS V14.01,2014-01-03 01:30:00,
2014-01-02 21:00:00,41.7,40.4,29.82,NW,315,0.0,3.0,95,0.01,,,0.40,VWS V14.01,2014-01-03 02:00:00,
2014-01-02 21:30:00,41.3,40.0,29.84,SW,225,0.0,6.0,95,0.00,,,0.40,VWS V14.01,2014-01-03 02:30:00,
2014-01-02 22:00:00,40.6,39.3,29.86,NW,315,0.0,6.0,95,0.00,,,0.40,VWS V14.01,2014-01-03 03:00:00,
2014-01-02 22:30:00,39.8,38.2,29.86,North,0,1.0,9.0,94,0.00,,,0.40,VWS V14.01,2014-01-03 03:30:00,
2014-01-02 23:00:00,39.0,36.3,29.87,North,0,1.0,9.0,90,0.00,,,0.40,VWS V14.01,2014-01-03 04:00:00,
2014-01-02 23:30:00,38.0,34.5,29.89,NNW,338,0.0,10.0,87,0.00,,,0.40,VWS V14.01,2014-01-03 04:30:00,